<?xml version='1.0' encoding='UTF-8'?>
<gpx xmlns="http://www.topografix.com/GPX/1/1" creator="www.balnam.be" version="1.1" xmlns:xsi="http://www.w3.org/2001/XMLSchema-instance" xsi:schemaLocation="http://www.topografix.com/GPX/1/1 http://www.topografix.com/GPX/1/1/gpx.xsd">
<trk>
<name>nhvjn1</name>
<cmt>r</cmt>
<desc>Jeneffe Chemin n°1 Rue de Chantraine / ?</desc>
<link href="https://chemins.be/jeneffe/chemin/1"/><trkseg>
<trkpt lat="50.352297" lon="5.244585"><time>2026-05-06T17:50:20Z</time></trkpt>
<trkpt lat="50.352335" lon="5.245443"><time>2026-05-06T18:00:20Z</time></trkpt>
<trkpt lat="50.352589" lon="5.246333"><time>2026-05-06T18:10:20Z</time></trkpt>
<trkpt lat="50.352114" lon="5.247378"><time>2026-05-06T18:20:20Z</time></trkpt>
<trkpt lat="50.352182" lon="5.247829"><time>2026-05-06T18:30:20Z</time></trkpt>
<trkpt lat="50.351633" lon="5.249083"><time>2026-05-06T18:40:20Z</time></trkpt>
</trkseg></trk>
<trk>
<name>nhvjn1</name>
<cmt>v</cmt>
<desc>Jeneffe Chemin n°1 Rue de Chantraine / ?</desc>
<link href="https://chemins.be/jeneffe/chemin/1"/><trkseg>
<trkpt lat="50.351633" lon="5.249083"><time>2026-05-06T18:40:20Z</time></trkpt>
<trkpt lat="50.351808" lon="5.252122"><time>2026-05-06T18:50:20Z</time></trkpt>
<trkpt lat="50.351849" lon="5.253809"><time>2026-05-06T19:00:20Z</time></trkpt>
<trkpt lat="50.352533" lon="5.256140"><time>2026-05-06T19:10:20Z</time></trkpt>
<trkpt lat="50.352651" lon="5.259459"><time>2026-05-06T19:20:20Z</time></trkpt>
</trkseg>
</trk>
<trk>
<name>nhvjn10</name>
<cmt>v</cmt>
<desc>Jeneffe Chemin n°10 </desc>
<link href="https://chemins.be/jeneffe/chemin/10"/><trkseg>
<trkpt lat="50.350522" lon="5.223390"><time>2026-05-06T17:50:20Z</time></trkpt>
<trkpt lat="50.351609" lon="5.222355"><time>2026-05-06T18:00:20Z</time></trkpt>
<trkpt lat="50.352633" lon="5.221631"><time>2026-05-06T18:10:20Z</time></trkpt>
<trkpt lat="50.353389" lon="5.221269"><time>2026-05-06T18:20:20Z</time></trkpt>
</trkseg>
</trk>
<trk>
<name>nhvjn11</name>
<cmt>v</cmt>
<desc>Jeneffe Chemin n°11 </desc>
<link href="https://chemins.be/jeneffe/chemin/11"/><trkseg>
<trkpt lat="50.346153" lon="5.218351"><time>2026-05-06T17:50:20Z</time></trkpt>
<trkpt lat="50.347050" lon="5.217510"><time>2026-05-06T18:00:20Z</time></trkpt>
<trkpt lat="50.348157" lon="5.217277"><time>2026-05-06T18:10:20Z</time></trkpt>
<trkpt lat="50.349128" lon="5.217365"><time>2026-05-06T18:20:20Z</time></trkpt>
<trkpt lat="50.350163" lon="5.217243"><time>2026-05-06T18:30:20Z</time></trkpt>
<trkpt lat="50.353309" lon="5.216076"><time>2026-05-06T18:40:20Z</time></trkpt>
</trkseg>
</trk>
<trk>
<name>nhvjn12</name>
<cmt>v</cmt>
<desc>Jeneffe Chemin n°12 </desc>
<link href="https://chemins.be/jeneffe/chemin/12"/><trkseg>
<trkpt lat="50.360617" lon="5.219988"><time>2026-05-06T17:50:20Z</time></trkpt>
<trkpt lat="50.357835" lon="5.218097"><time>2026-05-06T18:00:20Z</time></trkpt>
<trkpt lat="50.357197" lon="5.217959"><time>2026-05-06T18:10:20Z</time></trkpt>
<trkpt lat="50.356763" lon="5.217094"><time>2026-05-06T18:20:20Z</time></trkpt>
<trkpt lat="50.354241" lon="5.216515"><time>2026-05-06T18:30:20Z</time></trkpt>
<trkpt lat="50.353426" lon="5.216036"><time>2026-05-06T18:40:20Z</time></trkpt>
<trkpt lat="50.351773" lon="5.214644"><time>2026-05-06T18:50:20Z</time></trkpt>
<trkpt lat="50.350600" lon="5.214005"><time>2026-05-06T19:00:20Z</time></trkpt>
<trkpt lat="50.348498" lon="5.211283"><time>2026-05-06T19:10:20Z</time></trkpt>
<trkpt lat="50.347364" lon="5.211362"><time>2026-05-06T19:20:20Z</time></trkpt>
<trkpt lat="50.345766" lon="5.212331"><time>2026-05-06T19:30:20Z</time></trkpt>
<trkpt lat="50.345129" lon="5.212165"><time>2026-05-06T19:40:20Z</time></trkpt>
</trkseg>
</trk>
<trk>
<name>nhvjn13</name>
<cmt>v</cmt>
<desc>Jeneffe Chemin n°13 </desc>
<link href="https://chemins.be/jeneffe/chemin/13"/><trkseg>
<trkpt lat="50.342867" lon="5.214106"><time>2026-05-06T17:50:20Z</time></trkpt>
<trkpt lat="50.343961" lon="5.213184"><time>2026-05-06T18:00:20Z</time></trkpt>
<trkpt lat="50.345129" lon="5.212067"><time>2026-05-06T18:10:20Z</time></trkpt>
<trkpt lat="50.347267" lon="5.209870"><time>2026-05-06T18:20:20Z</time></trkpt>
<trkpt lat="50.348041" lon="5.208521"><time>2026-05-06T18:30:20Z</time></trkpt>
<trkpt lat="50.349092" lon="5.207486"><time>2026-05-06T18:40:20Z</time></trkpt>
<trkpt lat="50.349911" lon="5.207290"><time>2026-05-06T18:50:20Z</time></trkpt>
<trkpt lat="50.350208" lon="5.207295"><time>2026-05-06T19:00:20Z</time></trkpt>
</trkseg>
</trk>
<trk>
<name>nhvjn14</name>
<cmt>v</cmt>
<desc>Jeneffe Chemin n°14 </desc>
<link href="https://chemins.be/jeneffe/chemin/14"/><trkseg>
<trkpt lat="50.351862" lon="5.252151"><time>2026-05-06T17:50:20Z</time></trkpt>
<trkpt lat="50.350179" lon="5.254762"><time>2026-05-06T18:00:20Z</time></trkpt>
<trkpt lat="50.348018" lon="5.256365"><time>2026-05-06T18:10:20Z</time></trkpt>
</trkseg>
</trk>
<trk>
<name>nhvjn15</name>
<cmt>v</cmt>
<desc>Jeneffe Chemin n°15 </desc>
<link href="https://chemins.be/jeneffe/chemin/15"/><trkseg>
<trkpt lat="50.357182" lon="5.244169"><time>2026-05-06T17:50:20Z</time></trkpt>
<trkpt lat="50.357460" lon="5.243148"><time>2026-05-06T18:00:20Z</time></trkpt>
</trkseg>
</trk>
<trk>
<name>nhvjn16</name>
<cmt>v</cmt>
<desc>Jeneffe Chemin n°16 </desc>
<link href="https://chemins.be/jeneffe/chemin/16"/><trkseg>
<trkpt lat="50.352326" lon="5.245499"><time>2026-05-06T17:50:20Z</time></trkpt>
<trkpt lat="50.352042" lon="5.246140"><time>2026-05-06T18:00:20Z</time></trkpt>
</trkseg>
</trk>
<trk>
<name>nhvjn17</name>
<cmt>v</cmt>
<desc>Jeneffe Chemin n°17 </desc>
<link href="https://chemins.be/jeneffe/chemin/17"/><trkseg>
<trkpt lat="50.346359" lon="5.239136"><time>2026-05-06T17:50:20Z</time></trkpt>
<trkpt lat="50.348933" lon="5.242401"><time>2026-05-06T18:00:20Z</time></trkpt>
</trkseg></trk>
<trk>
<name>nhvjn17</name>
<cmt>s</cmt>
<desc>Jeneffe Chemin n°17 </desc>
<link href="https://chemins.be/jeneffe/chemin/17"/><trkseg>
<trkpt lat="50.348933" lon="5.242401"><time>2026-05-06T18:00:20Z</time></trkpt>
<trkpt lat="50.350126" lon="5.243884"><time>2026-05-06T18:10:20Z</time></trkpt>
</trkseg>
</trk>
<trk>
<name>nhvjn18</name>
<cmt>s</cmt>
<desc>Jeneffe Sentier n°18 Sentier de Barvaux à Miécret</desc>
<link href="https://chemins.be/jeneffe/sentier/18"/><trkseg>
<trkpt lat="50.345521" lon="5.251274"><time>2026-05-06T17:50:20Z</time></trkpt>
<trkpt lat="50.350158" lon="5.249239"><time>2026-05-06T18:00:20Z</time></trkpt>
<trkpt lat="50.351122" lon="5.247809"><time>2026-05-06T18:10:20Z</time></trkpt>
<trkpt lat="50.351629" lon="5.247341"><time>2026-05-06T18:20:20Z</time></trkpt>
<trkpt lat="50.352086" lon="5.247532"><time>2026-05-06T18:30:20Z</time></trkpt>
<trkpt lat="50.352642" lon="5.246488"><time>2026-05-06T18:40:20Z</time></trkpt>
<trkpt lat="50.353121" lon="5.246132"><time>2026-05-06T18:50:20Z</time></trkpt>
<trkpt lat="50.353759" lon="5.246284"><time>2026-05-06T19:00:20Z</time></trkpt>
<trkpt lat="50.353973" lon="5.246443"><time>2026-05-06T19:10:20Z</time></trkpt>
<trkpt lat="50.354941" lon="5.246840"><time>2026-05-06T19:20:20Z</time></trkpt>
<trkpt lat="50.355933" lon="5.246493"><time>2026-05-06T19:30:20Z</time></trkpt>
<trkpt lat="50.356066" lon="5.246706"><time>2026-05-06T19:40:20Z</time></trkpt>
<trkpt lat="50.356571" lon="5.245296"><time>2026-05-06T19:50:20Z</time></trkpt>
<trkpt lat="50.356868" lon="5.245344"><time>2026-05-06T20:00:20Z</time></trkpt>
<trkpt lat="50.358796" lon="5.244719"><time>2026-05-06T20:10:20Z</time></trkpt>
<trkpt lat="50.359896" lon="5.244430"><time>2026-05-06T20:20:20Z</time></trkpt>
</trkseg>
</trk>
<trk>
<name>nhvjn19</name>
<cmt>v</cmt>
<desc>Jeneffe Chemin n°19 </desc>
<link href="https://chemins.be/jeneffe/chemin/19"/><trkseg>
<trkpt lat="50.355983" lon="5.246958"><time>2026-05-06T17:50:20Z</time></trkpt>
<trkpt lat="50.355487" lon="5.248354"><time>2026-05-06T18:00:20Z</time></trkpt>
<trkpt lat="50.354675" lon="5.249927"><time>2026-05-06T18:10:20Z</time></trkpt>
</trkseg></trk>
<trk>
<name>nhvjn19</name>
<cmt>s</cmt>
<desc>Jeneffe Chemin n°19 </desc>
<link href="https://chemins.be/jeneffe/chemin/19"/><trkseg>
<trkpt lat="50.354675" lon="5.249927"><time>2026-05-06T18:10:20Z</time></trkpt>
<trkpt lat="50.353968" lon="5.250673"><time>2026-05-06T18:20:20Z</time></trkpt>
<trkpt lat="50.352671" lon="5.256832"><time>2026-05-06T18:30:20Z</time></trkpt>
</trkseg>
</trk>
<trk>
<name>nhvjn2</name>
<cmt>v</cmt>
<desc>Jeneffe Chemin n°2 </desc>
<link href="https://chemins.be/jeneffe/chemin/2"/><trkseg>
<trkpt lat="50.342705" lon="5.214061"><time>2026-05-06T17:50:20Z</time></trkpt>
<trkpt lat="50.343479" lon="5.215212"><time>2026-05-06T18:00:20Z</time></trkpt>
<trkpt lat="50.343942" lon="5.215783"><time>2026-05-06T18:10:20Z</time></trkpt>
<trkpt lat="50.344181" lon="5.216335"><time>2026-05-06T18:20:20Z</time></trkpt>
<trkpt lat="50.346189" lon="5.218450"><time>2026-05-06T18:30:20Z</time></trkpt>
<trkpt lat="50.347831" lon="5.220067"><time>2026-05-06T18:40:20Z</time></trkpt>
<trkpt lat="50.350512" lon="5.223474"><time>2026-05-06T18:50:20Z</time></trkpt>
<trkpt lat="50.352382" lon="5.225981"><time>2026-05-06T19:00:20Z</time></trkpt>
<trkpt lat="50.352970" lon="5.226666"><time>2026-05-06T19:10:20Z</time></trkpt>
<trkpt lat="50.353901" lon="5.227203"><time>2026-05-06T19:20:20Z</time></trkpt>
<trkpt lat="50.355859" lon="5.229979"><time>2026-05-06T19:30:20Z</time></trkpt>
<trkpt lat="50.357608" lon="5.231781"><time>2026-05-06T19:40:20Z</time></trkpt>
<trkpt lat="50.358733" lon="5.232842"><time>2026-05-06T19:50:20Z</time></trkpt>
<trkpt lat="50.361238" lon="5.236837"><time>2026-05-06T20:00:20Z</time></trkpt>
</trkseg>
</trk>
<trk>
<name>nhvjn20</name>
<cmt>v</cmt>
<desc>Jeneffe Sentier n°20 </desc>
<link href="https://chemins.be/jeneffe/sentier/20"/><trkseg>
<trkpt lat="50.354479" lon="5.241393"><time>2026-05-06T17:50:20Z</time></trkpt>
<trkpt lat="50.355474" lon="5.240512"><time>2026-05-06T18:00:20Z</time></trkpt>
<trkpt lat="50.356190" lon="5.238557"><time>2026-05-06T18:10:20Z</time></trkpt>
<trkpt lat="50.356496" lon="5.236202"><time>2026-05-06T18:20:20Z</time></trkpt>
<trkpt lat="50.357652" lon="5.231852"><time>2026-05-06T18:30:20Z</time></trkpt>
</trkseg></trk>
<trk>
<name>nhvjn20</name>
<cmt>d</cmt>
<desc>Jeneffe Sentier n°20 </desc>
<link href="https://chemins.be/jeneffe/sentier/20"/><trkseg>
<trkpt lat="50.357652" lon="5.231852"><time>2026-05-06T18:30:20Z</time></trkpt>
<trkpt lat="50.358238" lon="5.230490"><time>2026-05-06T18:40:20Z</time></trkpt>
</trkseg>
</trk>
<trk>
<name>nhvjn21</name>
<cmt>d</cmt>
<desc>Jeneffe Sentier n°21 </desc>
<link href="https://chemins.be/jeneffe/sentier/21"/><trkseg>
<trkpt lat="50.357514" lon="5.243065"><time>2026-05-06T17:50:20Z</time></trkpt>
<trkpt lat="50.357629" lon="5.242196"><time>2026-05-06T18:00:20Z</time></trkpt>
<trkpt lat="50.357784" lon="5.240723"><time>2026-05-06T18:10:20Z</time></trkpt>
<trkpt lat="50.358040" lon="5.238929"><time>2026-05-06T18:20:20Z</time></trkpt>
<trkpt lat="50.358856" lon="5.235641"><time>2026-05-06T18:30:20Z</time></trkpt>
<trkpt lat="50.358347" lon="5.232449"><time>2026-05-06T18:40:20Z</time></trkpt>
<trkpt lat="50.358183" lon="5.230449"><time>2026-05-06T18:50:20Z</time></trkpt>
</trkseg>
</trk>
<trk>
<name>nhvjn22</name>
<cmt>s</cmt>
<desc>Jeneffe Sentier n°22 Sentier de l'intérieur du Village au Pachis à Lavoine</desc>
<link href="https://chemins.be/jeneffe/sentier/22"/><trkseg>
<trkpt lat="50.353902" lon="5.245149"><time>2026-05-06T17:50:20Z</time></trkpt>
<trkpt lat="50.354013" lon="5.245923"><time>2026-05-06T18:00:20Z</time></trkpt>
</trkseg>
</trk>
<trk>
<name>nhvjn23</name>
<cmt>v</cmt>
<desc>Jeneffe Sentier n°23 </desc>
<link href="https://chemins.be/jeneffe/sentier/23"/><trkseg>
<trkpt lat="50.348717" lon="5.243620"><time>2026-05-06T17:50:20Z</time></trkpt>
<trkpt lat="50.348576" lon="5.244432"><time>2026-05-06T18:00:20Z</time></trkpt>
<trkpt lat="50.348575" lon="5.244970"><time>2026-05-06T18:10:20Z</time></trkpt>
</trkseg></trk>
<trk>
<name>nhvjn23</name>
<cmt>b</cmt>
<desc>Jeneffe Sentier n°23 </desc>
<link href="https://chemins.be/jeneffe/sentier/23"/><trkseg>
<trkpt lat="50.348575" lon="5.244970"><time>2026-05-06T18:10:20Z</time></trkpt>
<trkpt lat="50.348573" lon="5.245978"><time>2026-05-06T18:20:20Z</time></trkpt>
<trkpt lat="50.349855" lon="5.246423"><time>2026-05-06T18:30:20Z</time></trkpt>
<trkpt lat="50.350518" lon="5.246857"><time>2026-05-06T18:40:20Z</time></trkpt>
<trkpt lat="50.351122" lon="5.247809"><time>2026-05-06T18:50:20Z</time></trkpt>
<trkpt lat="50.351615" lon="5.249097"><time>2026-05-06T19:00:20Z</time></trkpt>
</trkseg>
</trk>
<trk>
<name>nhvjn24</name>
<cmt>v</cmt>
<desc>Jeneffe Sentier n°24 </desc>
<link href="https://chemins.be/jeneffe/sentier/24"/><trkseg>
<trkpt lat="50.357523" lon="5.243051"><time>2026-05-06T17:50:20Z</time></trkpt>
<trkpt lat="50.358703" lon="5.241611"><time>2026-05-06T18:00:20Z</time></trkpt>
<trkpt lat="50.360630" lon="5.239988"><time>2026-05-06T18:10:20Z</time></trkpt>
</trkseg>
</trk>
<trk>
<name>nhvjn25</name>
<cmt>s</cmt>
<desc>Jeneffe Sentier n°25 </desc>
<link href="https://chemins.be/jeneffe/sentier/25"/><trkseg>
<trkpt lat="50.358679" lon="5.244801"><time>2026-05-06T17:50:20Z</time></trkpt>
<trkpt lat="50.359733" lon="5.245734"><time>2026-05-06T18:00:20Z</time></trkpt>
</trkseg>
</trk>
<trk>
<name>nhvjn26</name>
<cmt>s</cmt>
<desc>Jeneffe Sentier n°26 </desc>
<link href="https://chemins.be/jeneffe/sentier/26"/><trkseg>
<trkpt lat="50.356875" lon="5.244360"><time>2026-05-06T17:50:20Z</time></trkpt>
<trkpt lat="50.356610" lon="5.243765"><time>2026-05-06T18:00:20Z</time></trkpt>
<trkpt lat="50.356475" lon="5.243777"><time>2026-05-06T18:10:20Z</time></trkpt>
<trkpt lat="50.355085" lon="5.243217"><time>2026-05-06T18:20:20Z</time></trkpt>
<trkpt lat="50.354671" lon="5.242141"><time>2026-05-06T18:30:20Z</time></trkpt>
</trkseg></trk>
<trk>
<name>nhvjn26</name>
<cmt>v</cmt>
<desc>Jeneffe Sentier n°26 </desc>
<link href="https://chemins.be/jeneffe/sentier/26"/><trkseg>
<trkpt lat="50.354671" lon="5.242141"><time>2026-05-06T18:30:20Z</time></trkpt>
<trkpt lat="50.352976" lon="5.243993"><time>2026-05-06T18:40:20Z</time></trkpt>
<trkpt lat="50.352477" lon="5.244532"><time>2026-05-06T18:50:20Z</time></trkpt>
</trkseg>
</trk>
<trk>
<name>nhvjn27</name>
<cmt>b</cmt>
<desc>Jeneffe Sentier n°27 </desc>
<link href="https://chemins.be/jeneffe/sentier/27"/><trkseg>
<trkpt lat="50.348104" lon="5.243861"><time>2026-05-06T17:50:20Z</time></trkpt>
<trkpt lat="50.347377" lon="5.244817"><time>2026-05-06T18:00:20Z</time></trkpt>
</trkseg>
</trk>
<trk>
<name>nhvjn28</name>
<cmt>d</cmt>
<desc>Jeneffe Sentier n°28 </desc>
<link href="https://chemins.be/jeneffe/sentier/28"/><trkseg>
<trkpt lat="50.351701" lon="5.247356"><time>2026-05-06T17:50:20Z</time></trkpt>
<trkpt lat="50.351853" lon="5.246285"><time>2026-05-06T18:00:20Z</time></trkpt>
<trkpt lat="50.351937" lon="5.245892"><time>2026-05-06T18:10:20Z</time></trkpt>
</trkseg>
</trk>
<trk>
<name>nhvjn29</name>
<cmt>s</cmt>
<desc>Jeneffe Sentier n°29 </desc>
<link href="https://chemins.be/jeneffe/sentier/29"/><trkseg>
<trkpt lat="50.355270" lon="5.245005"><time>2026-05-06T17:50:20Z</time></trkpt>
<trkpt lat="50.354339" lon="5.245691"><time>2026-05-06T18:00:20Z</time></trkpt>
<trkpt lat="50.353949" lon="5.246021"><time>2026-05-06T18:10:20Z</time></trkpt>
<trkpt lat="50.353723" lon="5.246269"><time>2026-05-06T18:20:20Z</time></trkpt>
<trkpt lat="50.352775" lon="5.245563"><time>2026-05-06T18:30:20Z</time></trkpt>
<trkpt lat="50.352434" lon="5.245487"><time>2026-05-06T18:40:20Z</time></trkpt>
</trkseg>
</trk>
<trk>
<name>nhvjn3</name>
<cmt>v</cmt>
<desc>Jeneffe Chemin n°3 Rue du Tige</desc>
<link href="https://chemins.be/jeneffe/chemin/3"/><trkseg>
<trkpt lat="50.350386" lon="5.233252"><time>2026-05-06T17:50:20Z</time></trkpt>
<trkpt lat="50.349368" lon="5.231126"><time>2026-05-06T18:00:20Z</time></trkpt>
<trkpt lat="50.347968" lon="5.227166"><time>2026-05-06T18:10:20Z</time></trkpt>
</trkseg>
</trk>
<trk>
<name>nhvjn30</name>
<cmt>s</cmt>
<desc>Jeneffe Sentier n°30 </desc>
<link href="https://chemins.be/jeneffe/sentier/30"/><trkseg>
<trkpt lat="50.352216" lon="5.244597"><time>2026-05-06T17:50:20Z</time></trkpt>
<trkpt lat="50.351461" lon="5.244541"><time>2026-05-06T18:00:20Z</time></trkpt>
<trkpt lat="50.350743" lon="5.244444"><time>2026-05-06T18:10:20Z</time></trkpt>
<trkpt lat="50.350243" lon="5.243901"><time>2026-05-06T18:20:20Z</time></trkpt>
</trkseg>
</trk>
<trk>
<name>nhvjn31</name>
<cmt>s</cmt>
<desc>Jeneffe Sentier n°31 </desc>
<link href="https://chemins.be/jeneffe/sentier/31"/><trkseg>
<trkpt lat="50.352904" lon="5.234408"><time>2026-05-06T17:50:20Z</time></trkpt>
<trkpt lat="50.353549" lon="5.235839"><time>2026-05-06T18:00:20Z</time></trkpt>
<trkpt lat="50.354253" lon="5.237918"><time>2026-05-06T18:10:20Z</time></trkpt>
<trkpt lat="50.355085" lon="5.240870"><time>2026-05-06T18:20:20Z</time></trkpt>
</trkseg>
</trk>
<trk>
<name>nhvjn6</name>
<cmt>s</cmt>
<desc>Jeneffe Chemin n°6 </desc>
<link href="https://chemins.be/jeneffe/chemin/6"/><trkseg>
<trkpt lat="50.348174" lon="5.257127"><time>2026-05-06T17:50:20Z</time></trkpt>
<trkpt lat="50.348858" lon="5.258208"><time>2026-05-06T18:00:20Z</time></trkpt>
<trkpt lat="50.350839" lon="5.260114"><time>2026-05-06T18:10:20Z</time></trkpt>
</trkseg>
</trk>
<trk>
<name>nhvjn9</name>
<cmt>s</cmt>
<desc>Jeneffe Chemin n°9 </desc>
<link href="https://chemins.be/jeneffe/chemin/9"/><trkseg>
<trkpt lat="50.352362" lon="5.227373"><time>2026-05-06T17:50:20Z</time></trkpt>
<trkpt lat="50.353033" lon="5.226772"><time>2026-05-06T18:00:20Z</time></trkpt>
</trkseg></trk>
<trk>
<name>nhvjn9</name>
<cmt>v</cmt>
<desc>Jeneffe Chemin n°9 </desc>
<link href="https://chemins.be/jeneffe/chemin/9"/><trkseg>
<trkpt lat="50.353033" lon="5.226772"><time>2026-05-06T18:00:20Z</time></trkpt>
<trkpt lat="50.355508" lon="5.223915"><time>2026-05-06T18:10:20Z</time></trkpt>
<trkpt lat="50.359115" lon="5.221324"><time>2026-05-06T18:20:20Z</time></trkpt>
<trkpt lat="50.360375" lon="5.219899"><time>2026-05-06T18:30:20Z</time></trkpt>
</trkseg>
</trk>
<trk>
<name>nhvjni1</name>
<cmt>v</cmt>
<desc>Jeneffe Chemin n°i1 </desc>
<link href="https://chemins.be/jeneffe/chemin/i1"/><trkseg>
<trkpt lat="50.353433" lon="5.221222"><time>2026-05-06T17:50:20Z</time></trkpt>
<trkpt lat="50.355030" lon="5.220436"><time>2026-05-06T18:00:20Z</time></trkpt>
<trkpt lat="50.356143" lon="5.219500"><time>2026-05-06T18:10:20Z</time></trkpt>
<trkpt lat="50.357100" lon="5.217788"><time>2026-05-06T18:20:20Z</time></trkpt>
</trkseg>
</trk>
<trk>
<name>nhvjni2</name>
<cmt>b</cmt>
<desc>Jeneffe Chemin n°i2 </desc>
<link href="https://chemins.be/jeneffe/chemin/i2"/><trkseg>
<trkpt lat="50.360455" lon="5.219957"><time>2026-05-06T17:50:20Z</time></trkpt>
<trkpt lat="50.358794" lon="5.214741"><time>2026-05-06T18:00:20Z</time></trkpt>
<trkpt lat="50.357674" lon="5.212964"><time>2026-05-06T18:10:20Z</time></trkpt>
<trkpt lat="50.357373" lon="5.212382"><time>2026-05-06T18:20:20Z</time></trkpt>
<trkpt lat="50.355370" lon="5.210801"><time>2026-05-06T18:30:20Z</time></trkpt>
<trkpt lat="50.354669" lon="5.209636"><time>2026-05-06T18:40:20Z</time></trkpt>
<trkpt lat="50.354175" lon="5.209501"><time>2026-05-06T18:50:20Z</time></trkpt>
</trkseg>
</trk>
</gpx>